Global Leader — C6SU5 — position and weather

sailwx.info

Track history (hours):
 
Tides and Currents Weather Stations Pressure Air Temp Water Temp Dewpoint Dewpoint Depression Visibility Wind Speed Wind Dir Waves Ship Positions

Global Leader

Last reported at 2017-Nov-11 06:43 UTC. Time now 2017-Nov-19 12:21 UTC.
Position N 10°18' W 075°53'.
Warning: this ship's position is 8 days out of date.

Length 189 m; draft 7.9 m.

Type: Cargo ship. MMSI: 311475000.

Date/timePositionNaut miles runAvg speedWind from/ knotsBaromVisibWave heightAir tempDewpointWater temp
2017-Nov-11 06:43N 10°18' W 075°53'315.6
2017-Nov-11 06:30N 10°18' W 075°50'816.4
2017-Nov-11 06:00N 10°19' W 075°42'612.5
2017-Nov-11 05:30N 10°19' W 075°35'510.0
2017-Nov-11 05:00N 10°22' W 075°31'1 1.6
2017-Nov-11 04:29N 10°22' W 075°31'0 0.0
2017-Nov-11 03:59N 10°22' W 075°31'0 0.0
2017-Nov-11 03:29N 10°22' W 075°31'0 0.0
2017-Nov-11 02:59N 10°22' W 075°31'0 0.0
2017-Nov-11 02:30N 10°22' W 075°31'0 0.0
2017-Nov-11 01:59N 10°22' W 075°31'0 0.0
2017-Nov-11 01:29N 10°22' W 075°31'0 0.0
2017-Nov-11 00:59N 10°22' W 075°31'0 0.0
2017-Nov-11 00:29N 10°22' W 075°31'0 0.0
2017-Nov-10 23:59N 10°22' W 075°31'0 0.0
2017-Nov-10 23:29N 10°22' W 075°31'0 0.0
2017-Nov-10 22:59N 10°22' W 075°31'0 0.0
2017-Nov-10 22:29N 10°22' W 075°31'0 0.0
2017-Nov-10 21:59N 10°22' W 075°31'0 0.0
2017-Nov-10 21:29N 10°22' W 075°31'0 0.0
2017-Nov-10 20:59N 10°22' W 075°31'0 0.0
2017-Nov-10 20:29N 10°22' W 075°31'0 0.0
2017-Nov-10 19:59N 10°22' W 075°31'0 0.0
2017-Nov-10 19:30N 10°22' W 075°31'0 0.0
2017-Nov-10 19:00N 10°22' W 075°31'0 0.0
2017-Nov-10 18:29N 10°22' W 075°31'0 0.0
2017-Nov-10 17:59N 10°22' W 075°31'0 0.0
2017-Nov-10 17:29N 10°22' W 075°31'0 0.0
2017-Nov-10 16:59N 10°22' W 075°31'0 0.0
2017-Nov-10 16:29N 10°22' W 075°31'0 0.0
2017-Nov-10 16:00N 10°22' W 075°31'0 0.0
2017-Nov-10 15:29N 10°22' W 075°31'0 0.0
2017-Nov-10 14:59N 10°22' W 075°31'0 0.3
2017-Nov-10 14:29N 10°23' W 075°31'2 3.2
2017-Nov-10 13:55N 10°21' W 075°32'11 7.8
2017-Nov-10 12:29N 10°23' W 075°43'  
2017-Nov-02 09:03N 39°45' W 073°01'414.9
2017-Nov-02 08:47N 39°48' W 073°05'1115.0
2017-Nov-02 08:03N 39°56' W 073°14'114.3
2017-Nov-02 08:00N 39°56' W 073°15'814.8
2017-Nov-02 07:30N 40°02' W 073°21'714.8
2017-Nov-02 07:01N 40°08' W 073°27'914.6
2017-Nov-02 06:22N 40°15' W 073°36'1210.1
2017-Nov-02 05:10N 40°24' W 073°46'2 9.8
2017-Nov-02 04:55N 40°26' W 073°48'3 8.4
2017-Nov-02 04:30N 40°28' W 073°51'5 9.9
2017-Nov-02 04:00N 40°30' W 073°57'713.7
2017-Nov-02 03:31N 40°36' W 074°02'4 8.2
2017-Nov-02 03:00N 40°39' W 074°06'2 4.6
2017-Nov-02 02:30N 40°40' W 074°09'2 3.9
2017-Nov-02 02:00N 40°42' W 074°08'0 0.1
2017-Nov-02 01:29N 40°42' W 074°08'0 0.0
2017-Nov-02 00:59N 40°42' W 074°08'0 0.0
2017-Nov-02 00:29N 40°42' W 074°08'0 0.0
2017-Nov-01 23:59N 40°42' W 074°08'0 0.0
2017-Nov-01 23:29N 40°42' W 074°08'0 0.0
2017-Nov-01 22:59N 40°42' W 074°08'0 0.0
2017-Nov-01 22:29N 40°42' W 074°08'0 0.0
2017-Nov-01 21:59N 40°42' W 074°08'0 0.0
2017-Nov-01 21:29N 40°42' W 074°08'0 0.0
2017-Nov-01 20:59N 40°42' W 074°08'0 0.0
2017-Nov-01 20:29N 40°42' W 074°08'0 0.0
2017-Nov-01 19:59N 40°42' W 074°08'0 0.0
2017-Nov-01 19:29N 40°42' W 074°08'0 0.0
2017-Nov-01 18:59N 40°42' W 074°08'0 0.0
2017-Nov-01 18:29N 40°42' W 074°08'  
Track history (hours):
 
Tides and Currents Weather Stations Pressure Air Temp Water Temp Dewpoint Dewpoint Depression Visibility Wind Speed Wind Dir Waves Ship Positions

Global Leader

Last reported at 2017-Nov-11 06:43 UTC. Time now 2017-Nov-19 12:21 UTC.
Position N 10°18' W 075°53'.
Warning: this ship's position is 8 days out of date.

Length 189 m; draft 7.9 m.

Type: Cargo ship. MMSI: 311475000.

Date/timePositionNaut miles runAvg speedWind from/ knotsBaromVisibWave heightAir tempDewpointWater temp
2017-Nov-11 06:43N 10°18' W 075°53'315.6
2017-Nov-11 06:30N 10°18' W 075°50'816.4
2017-Nov-11 06:00N 10°19' W 075°42'612.5
2017-Nov-11 05:30N 10°19' W 075°35'510.0
2017-Nov-11 05:00N 10°22' W 075°31'1 1.6
2017-Nov-11 04:29N 10°22' W 075°31'0 0.0
2017-Nov-11 03:59N 10°22' W 075°31'0 0.0
2017-Nov-11 03:29N 10°22' W 075°31'0 0.0
2017-Nov-11 02:59N 10°22' W 075°31'0 0.0
2017-Nov-11 02:30N 10°22' W 075°31'0 0.0
2017-Nov-11 01:59N 10°22' W 075°31'0 0.0
2017-Nov-11 01:29N 10°22' W 075°31'0 0.0
2017-Nov-11 00:59N 10°22' W 075°31'0 0.0
2017-Nov-11 00:29N 10°22' W 075°31'0 0.0
2017-Nov-10 23:59N 10°22' W 075°31'0 0.0
2017-Nov-10 23:29N 10°22' W 075°31'0 0.0
2017-Nov-10 22:59N 10°22' W 075°31'0 0.0
2017-Nov-10 22:29N 10°22' W 075°31'0 0.0
2017-Nov-10 21:59N 10°22' W 075°31'0 0.0
2017-Nov-10 21:29N 10°22' W 075°31'0 0.0
2017-Nov-10 20:59N 10°22' W 075°31'0 0.0
2017-Nov-10 20:29N 10°22' W 075°31'0 0.0
2017-Nov-10 19:59N 10°22' W 075°31'0 0.0
2017-Nov-10 19:30N 10°22' W 075°31'0 0.0
2017-Nov-10 19:00N 10°22' W 075°31'0 0.0
2017-Nov-10 18:29N 10°22' W 075°31'0 0.0
2017-Nov-10 17:59N 10°22' W 075°31'0 0.0
2017-Nov-10 17:29N 10°22' W 075°31'0 0.0
2017-Nov-10 16:59N 10°22' W 075°31'0 0.0
2017-Nov-10 16:29N 10°22' W 075°31'0 0.0
2017-Nov-10 16:00N 10°22' W 075°31'0 0.0
2017-Nov-10 15:29N 10°22' W 075°31'0 0.0
2017-Nov-10 14:59N 10°22' W 075°31'0 0.3
2017-Nov-10 14:29N 10°23' W 075°31'2 3.2
2017-Nov-10 13:55N 10°21' W 075°32'11 7.8
2017-Nov-10 12:29N 10°23' W 075°43'  
2017-Nov-02 09:03N 39°45' W 073°01'414.9
2017-Nov-02 08:47N 39°48' W 073°05'1115.0
2017-Nov-02 08:03N 39°56' W 073°14'114.3
2017-Nov-02 08:00N 39°56' W 073°15'814.8
2017-Nov-02 07:30N 40°02' W 073°21'714.8
2017-Nov-02 07:01N 40°08' W 073°27'914.6
2017-Nov-02 06:22N 40°15' W 073°36'1210.1
2017-Nov-02 05:10N 40°24' W 073°46'2 9.8
2017-Nov-02 04:55N 40°26' W 073°48'3 8.4
2017-Nov-02 04:30N 40°28' W 073°51'5 9.9
2017-Nov-02 04:00N 40°30' W 073°57'713.7
2017-Nov-02 03:31N 40°36' W 074°02'4 8.2
2017-Nov-02 03:00N 40°39' W 074°06'2 4.6
2017-Nov-02 02:30N 40°40' W 074°09'2 3.9
2017-Nov-02 02:00N 40°42' W 074°08'0 0.1
2017-Nov-02 01:29N 40°42' W 074°08'0 0.0
2017-Nov-02 00:59N 40°42' W 074°08'0 0.0
2017-Nov-02 00:29N 40°42' W 074°08'0 0.0
2017-Nov-01 23:59N 40°42' W 074°08'0 0.0
2017-Nov-01 23:29N 40°42' W 074°08'0 0.0
2017-Nov-01 22:59N 40°42' W 074°08'0 0.0
2017-Nov-01 22:29N 40°42' W 074°08'0 0.0
2017-Nov-01 21:59N 40°42' W 074°08'0 0.0
2017-Nov-01 21:29N 40°42' W 074°08'0 0.0
2017-Nov-01 20:59N 40°42' W 074°08'0 0.0
2017-Nov-01 20:29N 40°42' W 074°08'0 0.0
2017-Nov-01 19:59N 40°42' W 074°08'0 0.0
2017-Nov-01 19:29N 40°42' W 074°08'0 0.0
2017-Nov-01 18:59N 40°42' W 074°08'0 0.0
2017-Nov-01 18:29N 40°42' W 074°08'  

Dump ship's entire track history